Time;durP1;ratioP1;P1;durP2;ratioP2;P2;SDS_P1;SDS_P2;PMS_P1;PMS_P2;Temp;Humidity;BMP_temperature;BMP_pressure;BME280_temperature;BME280_humidity;BME280_pressure;Samples;Min_cycle;Max_cycle;Signal;HPM_P1;HPM_P2
2022/04/28 00:00:21;;;;;;;12.05;5.03;;;;;;;;;;5032467;27;94479;-77
2022/04/28 00:02:48;;;;;;;6.40;4.90;;;;;;;;;;5028119;27;93955;-77
2022/04/28 00:05:14;;;;;;;10.00;5.10;;;;;;;;;;5032677;27;94805;-77
2022/04/28 00:07:41;;;;;;;10.95;5.45;;;;;;;;;;5031568;27;94436;-77
2022/04/28 00:10:08;;;;;;;11.05;6.00;;;;;;;;;;5035984;27;93572;-77
2022/04/28 00:12:34;;;;;;;11.65;6.85;;;;;;;;;;5031093;27;93891;-78
2022/04/28 00:15:01;;;;;;;14.23;5.75;;;;;;;;;;5033651;27;93475;-78
2022/04/28 00:17:27;;;;;;;11.63;5.97;;;;;;;;;;5030930;27;94422;-77
2022/04/28 00:19:53;;;;;;;12.15;5.40;;;;;;;;;;5032807;27;94454;-77
2022/04/28 00:22:21;;;;;;;7.45;5.30;;;;;;;;;;5036328;27;96779;-77
2022/04/28 00:24:47;;;;;;;14.02;5.70;;;;;;;;;;5029768;27;96251;-77
2022/04/28 00:27:14;;;;;;;12.95;6.45;;;;;;;;;;5033700;27;93511;-77
2022/04/28 00:29:40;;;;;;;14.95;6.10;;;;;;;;;;5034025;27;93974;-77
2022/04/28 00:32:07;;;;;;;10.23;6.55;;;;;;;;;;5016912;27;95630;-77
2022/04/28 00:34:33;;;;;;;13.82;6.45;;;;;;;;;;5017163;27;94612;-77
2022/04/28 00:37:00;;;;;;;9.13;6.32;;;;;;;;;;5020012;27;94040;-78
2022/04/28 00:39:27;;;;;;;16.35;6.82;;;;;;;;;;5033865;27;92406;-78
2022/04/28 00:41:53;;;;;;;23.40;8.15;;;;;;;;;;5034044;27;93211;-78
2022/04/28 00:44:20;;;;;;;17.88;6.88;;;;;;;;;;5033384;27;94070;-77
2022/04/28 00:46:46;;;;;;;8.65;6.63;;;;;;;;;;5030904;27;96309;-77
2022/04/28 00:51:59;;;;;;;13.05;7.05;;;;;;;;;;5019870;27;96083;-77
2022/04/28 00:54:32;;;;;;;16.17;7.22;;;;;;;;;;5031652;27;93944;-77
2022/04/28 00:57:00;;;;;;;15.18;7.40;;;;;;;;;;5032875;27;94102;-77
2022/04/28 00:59:27;;;;;;;13.80;7.30;;;;;;;;;;5017568;27;95240;-77
2022/04/28 01:01:54;;;;;;;15.50;7.43;;;;;;;;;;5013883;27;93904;-78
2022/04/28 01:04:20;;;;;;;18.58;7.13;;;;;;;;;;5028939;27;95633;-77
2022/04/28 01:06:47;;;;;;;16.10;6.63;;;;;;;;;;5017464;27;94676;-77
2022/04/28 01:09:14;;;;;;;10.90;6.28;;;;;;;;;;5020925;27;94238;-77
2022/04/28 01:11:41;;;;;;;10.82;6.68;;;;;;;;;;5026646;27;94968;-77
2022/04/28 01:14:20;;;;;;;16.23;7.57;;;;;;;;;;5018456;27;94342;-77
2022/04/28 01:16:53;;;;;;;13.25;6.97;;;;;;;;;;5032350;27;92678;-77
2022/04/28 01:19:19;;;;;;;21.05;7.32;;;;;;;;;;5035991;27;92922;-77
2022/04/28 01:21:46;;;;;;;15.98;6.97;;;;;;;;;;5030766;27;93870;-77
2022/04/28 01:24:15;;;;;;;15.45;7.20;;;;;;;;;;5016139;27;97267;-77
2022/04/28 01:26:42;;;;;;;11.30;7.70;;;;;;;;;;5014162;27;95199;-77
2022/04/28 01:29:09;;;;;;;17.92;7.93;;;;;;;;;;5028197;27;92317;-77
2022/04/28 01:31:35;;;;;;;10.40;7.32;;;;;;;;;;5018277;27;94448;-77
2022/04/28 01:34:05;;;;;;;15.68;7.75;;;;;;;;;;5018460;27;94263;-77
2022/04/28 01:36:32;;;;;;;12.70;7.60;;;;;;;;;;5018843;27;97363;-77
2022/04/28 01:38:58;;;;;;;12.60;7.30;;;;;;;;;;5029385;27;96072;-77
2022/04/28 01:41:25;;;;;;;17.17;7.95;;;;;;;;;;5016514;27;92560;-77
2022/04/28 01:43:52;;;;;;;12.38;7.43;;;;;;;;;;5015308;27;92716;-77
2022/04/28 01:46:19;;;;;;;16.25;7.57;;;;;;;;;;5018628;27;97612;-77
2022/04/28 01:48:57;;;;;;;21.25;8.27;;;;;;;;;;5019216;27;93857;-77
2022/04/28 01:54:58;;;;;;;14.00;7.32;;;;;;;;;;5037908;27;92930;-77
2022/04/28 01:57:36;;;;;;;18.77;8.60;;;;;;;;;;5015676;27;93541;-78
2022/04/28 02:00:22;;;;;;;17.02;7.70;;;;;;;;;;5012396;27;93022;-77
2022/04/28 02:02:57;;;;;;;18.73;8.15;;;;;;;;;;5014998;27;97012;-77
2022/04/28 02:05:25;;;;;;;12.57;7.75;;;;;;;;;;5020049;27;93988;-77
2022/04/28 02:07:52;;;;;;;19.00;8.63;;;;;;;;;;5015624;27;94895;-77
2022/04/28 02:10:18;;;;;;;13.10;8.73;;;;;;;;;;5017929;27;93741;-77
2022/04/28 02:12:45;;;;;;;17.58;9.18;;;;;;;;;;5020543;27;92620;-78
2022/04/28 02:15:40;;;;;;;12.27;8.95;;;;;;;;;;5033519;27;94780;-78
2022/04/28 02:18:26;;;;;;;27.08;8.70;;;;;;;;;;5031307;27;92607;-78
2022/04/28 02:20:53;;;;;;;15.65;8.50;;;;;;;;;;5033867;27;92936;-77
2022/04/28 02:23:21;;;;;;;19.55;8.48;;;;;;;;;;5016234;27;94282;-77
2022/04/28 02:25:47;;;;;;;14.55;8.82;;;;;;;;;;5013188;27;93417;-77
2022/04/28 02:28:17;;;;;;;14.18;8.65;;;;;;;;;;5012946;27;96700;-77
2022/04/28 02:30:44;;;;;;;19.27;8.57;;;;;;;;;;5034785;27;94027;-77
2022/04/28 02:33:12;;;;;;;15.82;9.02;;;;;;;;;;5010036;27;94353;-78
2022/04/28 02:36:04;;;;;;;17.27;9.13;;;;;;;;;;5024205;27;94342;-77
2022/04/28 02:38:34;;;;;;;17.65;8.65;;;;;;;;;;5015401;27;92785;-77
2022/04/28 02:41:04;;;;;;;20.50;9.85;;;;;;;;;;5032031;27;95016;-77
2022/04/28 02:43:31;;;;;;;14.15;8.27;;;;;;;;;;5017561;27;94886;-77
2022/04/28 02:46:05;;;;;;;19.75;9.48;;;;;;;;;;5015494;27;93556;-77
2022/04/28 02:48:44;;;;;;;16.98;8.93;;;;;;;;;;5016844;27;93376;-77
2022/04/28 02:51:11;;;;;;;17.05;9.57;;;;;;;;;;5021176;27;95302;-77
2022/04/28 02:53:40;;;;;;;21.27;9.48;;;;;;;;;;5015290;27;95756;-77
2022/04/28 02:56:07;;;;;;;21.48;9.02;;;;;;;;;;5021834;27;95408;-77
2022/04/28 02:58:37;;;;;;;20.80;8.80;;;;;;;;;;5031580;27;94112;-77
2022/04/28 03:01:05;;;;;;;17.95;9.23;;;;;;;;;;5021291;27;95275;-77
2022/04/28 03:03:33;;;;;;;18.55;8.88;;;;;;;;;;5013364;27;95177;-77
2022/04/28 03:11:31;;;;;;;15.80;9.23;;;;;;;;;;5035766;27;93190;-77
2022/04/28 03:13:57;;;;;;;14.48;8.30;;;;;;;;;;5038253;27;95046;-77
2022/04/28 03:16:26;;;;;;;20.10;9.55;;;;;;;;;;5014933;27;95320;-77
2022/04/28 03:18:59;;;;;;;17.20;9.32;;;;;;;;;;5012582;27;96281;-77
2022/04/28 03:21:25;;;;;;;17.85;9.50;;;;;;;;;;5025411;27;97645;-77
2022/04/28 03:23:52;;;;;;;16.08;9.07;;;;;;;;;;5040098;27;92959;-77
2022/04/28 03:26:18;;;;;;;20.02;9.05;;;;;;;;;;5037002;27;92847;-77
2022/04/28 03:28:44;;;;;;;13.75;8.95;;;;;;;;;;5020753;27;93871;-77
2022/04/28 03:31:11;;;;;;;16.70;9.38;;;;;;;;;;5020361;27;94643;-78
2022/04/28 03:33:53;;;;;;;18.58;9.18;;;;;;;;;;5015113;27;93786;-77
2022/04/28 03:39:05;;;;;;;21.45;9.35;;;;;;;;;;5028675;27;94145;-77
2022/04/28 03:41:31;;;;;;;12.80;9.02;;;;;;;;;;5030449;27;93095;-77
2022/04/28 03:43:57;;;;;;;17.05;8.70;;;;;;;;;;5014286;27;99568;-77
2022/04/28 03:46:24;;;;;;;12.40;8.65;;;;;;;;;;5029508;27;94189;-77
2022/04/28 03:48:51;;;;;;;15.50;8.48;;;;;;;;;;5034542;27;93732;-77
2022/04/28 03:51:18;;;;;;;15.57;8.80;;;;;;;;;;5015846;27;95551;-77
2022/04/28 03:53:44;;;;;;;22.23;10.57;;;;;;;;;;5031251;27;93046;-77
2022/04/28 03:56:11;;;;;;;23.55;9.73;;;;;;;;;;5020704;27;94172;-77
2022/04/28 03:58:37;;;;;;;17.02;8.10;;;;;;;;;;5037667;27;94392;-77
2022/04/28 04:01:04;;;;;;;21.45;8.98;;;;;;;;;;5015614;27;95437;-77
2022/04/28 04:03:50;;;;;;;16.20;8.40;;;;;;;;;;5029712;27;93970;-77
2022/04/28 04:06:17;;;;;;;19.35;9.50;;;;;;;;;;5019395;27;93305;-78
2022/04/28 04:08:52;;;;;;;15.88;9.32;;;;;;;;;;5015130;27;97084;-77
2022/04/28 04:11:18;;;;;;;13.05;8.63;;;;;;;;;;5035102;27;93671;-77
2022/04/28 04:13:46;;;;;;;11.82;8.43;;;;;;;;;;5029453;27;93033;-77
2022/04/28 04:16:12;;;;;;;14.35;9.55;;;;;;;;;;5018675;27;95521;-77
2022/04/28 04:18:55;;;;;;;;;;;;;;;;;;5016530;27;95000;-78
2022/04/28 04:21:25;;;;;;;19.35;8.98;;;;;;;;;;5025011;27;92448;-78
2022/04/28 04:23:52;;;;;;;13.38;9.48;;;;;;;;;;5015840;27;95396;-78
2022/04/28 04:26:19;;;;;;;13.60;9.18;;;;;;;;;;5016395;27;93979;-78
2022/04/28 04:28:45;;;;;;;21.15;9.77;;;;;;;;;;5020877;27;93206;-78
2022/04/28 04:34:27;;;;;;;17.35;8.73;;;;;;;;;;5014068;27;95119;-78
2022/04/28 04:36:54;;;;;;;16.80;9.25;;;;;;;;;;5013665;27;97951;-78
2022/04/28 04:39:20;;;;;;;20.33;9.88;;;;;;;;;;5015909;27;95201;-77
2022/04/28 04:41:47;;;;;;;16.73;8.82;;;;;;;;;;5028968;27;92591;-77
2022/04/28 04:44:14;;;;;;;21.88;9.57;;;;;;;;;;5018230;27;95260;-77
2022/04/28 04:46:45;;;;;;;14.80;8.90;;;;;;;;;;5018565;27;93445;-77
2022/04/28 04:49:31;;;;;;;12.43;7.82;;;;;;;;;;5023747;27;96131;-77
2022/04/28 04:52:26;;;;;;;18.85;8.65;;;;;;;;;;5013537;27;93499;-77
2022/04/28 04:55:00;;;;;;;18.23;8.73;;;;;;;;;;5029888;27;94334;-77
2022/04/28 04:57:35;;;;;;;16.13;8.63;;;;;;;;;;5027937;27;94973;-76
2022/04/28 05:00:04;;;;;;;19.27;9.25;;;;;;;;;;5019009;27;97392;-76
2022/04/28 05:02:40;;;;;;;11.95;8.85;;;;;;;;;;5014195;27;93620;-76
2022/04/28 05:05:33;;;;;;;11.33;7.73;;;;;;;;;;5031722;27;94347;-77
2022/04/28 05:08:08;;;;;;;21.15;9.13;;;;;;;;;;5016481;27;93450;-77
2022/04/28 05:10:41;;;;;;;21.27;8.68;;;;;;;;;;5015556;27;94755;-77
2022/04/28 05:13:08;;;;;;;16.35;8.48;;;;;;;;;;5030042;27;93827;-77
2022/04/28 05:15:47;;;;;;;20.30;8.82;;;;;;;;;;5013566;27;92755;-77
2022/04/28 05:18:19;;;;;;;17.60;8.32;;;;;;;;;;5016720;27;92947;-78
2022/04/28 05:20:50;;;;;;;17.25;8.18;;;;;;;;;;5014301;27;94658;-76
2022/04/28 05:23:35;;;;;;;13.35;6.90;;;;;;;;;;5029093;27;92472;-76
2022/04/28 05:26:20;;;;;;;21.38;7.95;;;;;;;;;;5027001;27;95516;-77
2022/04/28 05:29:05;;;;;;;19.05;8.07;;;;;;;;;;5034025;27;94076;-77
2022/04/28 05:31:53;;;;;;;10.25;7.05;;;;;;;;;;5037150;27;94660;-77
2022/04/28 05:34:35;;;;;;;12.82;6.63;;;;;;;;;;5017313;27;95330;-77
2022/04/28 05:37:14;;;;;;;17.23;7.38;;;;;;;;;;5019811;27;94534;-77
2022/04/28 05:39:42;;;;;;;12.52;6.47;;;;;;;;;;5013606;27;95553;-77
2022/04/28 05:42:10;;;;;;;17.75;7.75;;;;;;;;;;5032648;27;94063;-77
2022/04/28 05:47:22;;;;;;;9.48;6.07;;;;;;;;;;5034369;27;93828;-77
2022/04/28 05:49:49;;;;;;;15.30;7.28;;;;;;;;;;5034883;27;94016;-76
2022/04/28 05:52:15;;;;;;;17.10;8.23;;;;;;;;;;5019753;27;96563;-76
2022/04/28 05:54:42;;;;;;;11.05;6.53;;;;;;;;;;5014263;27;94238;-76
2022/04/28 05:57:11;;;;;;;20.83;7.57;;;;;;;;;;5015179;27;94090;-76
2022/04/28 05:59:39;;;;;;;12.45;5.88;;;;;;;;;;5017033;27;93410;-76
2022/04/28 06:02:33;;;;;;;15.50;5.72;;;;;;;;;;5029845;27;94464;-76
2022/04/28 06:05:02;;;;;;;18.50;6.30;;;;;;;;;;5015871;27;94207;-76
2022/04/28 06:07:29;;;;;;;11.82;6.68;;;;;;;;;;5017914;27;93907;-76
2022/04/28 06:09:56;;;;;;;15.68;6.57;;;;;;;;;;5019614;27;94733;-76
2022/04/28 06:12:25;;;;;;;11.88;5.35;;;;;;;;;;5016419;27;94350;-76
2022/04/28 06:15:14;;;;;;;9.82;6.18;;;;;;;;;;5004517;27;94266;-76
2022/04/28 06:17:59;;;;;;;10.82;4.97;;;;;;;;;;5029506;27;95448;-76
2022/04/28 06:20:25;;;;;;;13.32;6.00;;;;;;;;;;5014139;27;98179;-76
2022/04/28 06:23:04;;;;;;;7.45;5.60;;;;;;;;;;5028209;27;94531;-76
2022/04/28 06:25:42;;;;;;;7.30;4.82;;;;;;;;;;5013487;27;94271;-77
2022/04/28 06:28:12;;;;;;;16.80;6.00;;;;;;;;;;5029124;27;94899;-76
2022/04/28 06:30:41;;;;;;;20.90;5.63;;;;;;;;;;5016790;27;94349;-74
2022/04/28 06:33:24;;;;;;;;;;;;;;;;;;5015317;27;92607;-76
2022/04/28 06:36:04;;;;;;;8.38;3.72;;;;;;;;;;5024572;27;93507;-75
2022/04/28 06:38:37;;;;;;;7.35;4.57;;;;;;;;;;5020332;27;92540;-74
2022/04/28 06:41:06;;;;;;;17.17;5.00;;;;;;;;;;5013245;27;95669;-75
2022/04/28 06:43:37;;;;;;;9.88;5.00;;;;;;;;;;5019182;27;97634;-75
2022/04/28 06:46:23;;;;;;;10.88;4.85;;;;;;;;;;5032146;27;95062;-75
2022/04/28 06:49:08;;;;;;;11.85;4.00;;;;;;;;;;5030087;27;93281;-74
2022/04/28 06:51:53;;;;;;;21.80;4.32;;;;;;;;;;5034783;27;93956;-74
2022/04/28 06:54:46;;;;;;;16.02;4.90;;;;;;;;;;5024793;27;93984;-74
2022/04/28 06:57:19;;;;;;;10.48;4.80;;;;;;;;;;5017501;27;94368;-73
2022/04/28 06:59:45;;;;;;;10.27;4.38;;;;;;;;;;5026699;27;94551;-75
2022/04/28 07:02:17;;;;;;;10.82;4.47;;;;;;;;;;5018839;27;94182;-75
2022/04/28 07:04:45;;;;;;;11.32;4.70;;;;;;;;;;5012115;27;97952;-75
2022/04/28 07:07:15;;;;;;;13.68;4.78;;;;;;;;;;5032681;27;92466;-75
2022/04/28 07:09:44;;;;;;;15.63;4.88;;;;;;;;;;5034381;27;95062;-76
2022/04/28 07:12:30;;;;;;;10.73;3.65;;;;;;;;;;5027051;28;95487;-76
2022/04/28 07:14:57;;;;;;;14.63;3.97;;;;;;;;;;5034781;27;92652;-78
2022/04/28 07:17:42;;;;;;;5.65;3.28;;;;;;;;;;5034664;27;93956;-75
2022/04/28 07:20:09;;;;;;;13.43;4.25;;;;;;;;;;5026519;27;94375;-75
2022/04/28 07:22:36;;;;;;;10.60;3.40;;;;;;;;;;5038472;27;93965;-76
2022/04/28 07:25:04;;;;;;;10.55;4.07;;;;;;;;;;5029870;27;95352;-76
2022/04/28 07:27:31;;;;;;;14.02;3.80;;;;;;;;;;5022284;27;91762;-76
2022/04/28 07:30:07;;;;;;;11.93;4.20;;;;;;;;;;5014944;27;94387;-75
2022/04/28 07:32:40;;;;;;;9.90;3.38;;;;;;;;;;5016916;27;95673;-75
2022/04/28 07:35:16;;;;;;;9.63;3.55;;;;;;;;;;5032714;27;95668;-75
2022/04/28 07:38:00;;;;;;;11.10;3.60;;;;;;;;;;5035733;27;94822;-75
2022/04/28 07:40:33;;;;;;;15.18;5.82;;;;;;;;;;5036663;27;93039;-75
2022/04/28 07:43:04;;;;;;;10.93;6.72;;;;;;;;;;5016809;27;93199;-75
2022/04/28 07:45:31;;;;;;;21.52;9.65;;;;;;;;;;5032352;27;93846;-74
2022/04/28 07:48:01;;;;;;;10.05;4.38;;;;;;;;;;5016816;28;92957;-74
2022/04/28 07:50:30;;;;;;;12.68;4.93;;;;;;;;;;5016567;27;93927;-74
2022/04/28 07:53:06;;;;;;;9.07;4.13;;;;;;;;;;5019047;27;95127;-75
2022/04/28 07:55:33;;;;;;;10.32;4.00;;;;;;;;;;5035198;27;93485;-75
2022/04/28 07:58:00;;;;;;;8.13;4.30;;;;;;;;;;5015888;27;95785;-75
2022/04/28 08:00:42;;;;;;;9.77;3.78;;;;;;;;;;5022671;27;98084;-75
2022/04/28 08:03:08;;;;;;;12.73;3.90;;;;;;;;;;5027161;27;92607;-74
2022/04/28 08:05:46;;;;;;;6.85;3.33;;;;;;;;;;5039609;27;94017;-74
2022/04/28 08:08:12;;;;;;;11.43;4.03;;;;;;;;;;5076717;27;93912;-75
2022/04/28 08:10:39;;;;;;;12.70;3.42;;;;;;;;;;5055194;27;95157;-74
2022/04/28 08:13:05;;;;;;;9.77;3.97;;;;;;;;;;5055349;27;96370;-74
2022/04/28 08:15:54;;;;;;;7.80;3.38;;;;;;;;;;5051049;27;94675;-74
2022/04/28 08:18:24;;;;;;;10.40;3.10;;;;;;;;;;5028860;27;94191;-75
2022/04/28 08:20:52;;;;;;;9.07;3.67;;;;;;;;;;5028434;27;95567;-74
2022/04/28 08:23:18;;;;;;;13.25;3.90;;;;;;;;;;5055374;27;92479;-75
2022/04/28 08:25:45;;;;;;;8.73;2.40;;;;;;;;;;5051729;27;94955;-75
2022/04/28 08:28:11;;;;;;;4.72;2.88;;;;;;;;;;5031779;27;95414;-74
2022/04/28 08:30:38;;;;;;;6.72;3.25;;;;;;;;;;5016769;27;95056;-74
2022/04/28 08:33:05;;;;;;;9.98;3.58;;;;;;;;;;5019506;27;95921;-75
2022/04/28 08:35:31;;;;;;;13.02;3.40;;;;;;;;;;5021487;27;94195;-74
2022/04/28 08:37:58;;;;;;;10.05;3.50;;;;;;;;;;5038447;27;93971;-75
2022/04/28 08:40:25;;;;;;;16.38;3.80;;;;;;;;;;5031235;27;95319;-74
2022/04/28 08:42:52;;;;;;;6.18;3.22;;;;;;;;;;5034865;27;93438;-74
2022/04/28 08:45:37;;;;;;;5.82;3.88;;;;;;;;;;5036391;27;94550;-75
2022/04/28 08:48:23;;;;;;;6.70;3.20;;;;;;;;;;5033929;27;93249;-75
2022/04/28 08:51:10;;;;;;;11.98;3.45;;;;;;;;;;5027441;27;96482;-74
2022/04/28 08:53:39;;;;;;;4.72;3.00;;;;;;;;;;5018303;28;94648;-74
2022/04/28 08:56:05;;;;;;;6.70;3.53;;;;;;;;;;5015722;28;92962;-75
2022/04/28 08:58:32;;;;;;;5.80;3.50;;;;;;;;;;5015877;28;95490;-74
2022/04/28 09:01:03;;;;;;;13.55;3.63;;;;;;;;;;5016017;28;92575;-74
2022/04/28 09:03:48;;;;;;;16.30;3.60;;;;;;;;;;5033557;28;92563;-74
2022/04/28 09:06:43;;;;;;;8.98;3.80;;;;;;;;;;5033955;28;92762;-74
2022/04/28 09:09:38;;;;;;;6.97;3.53;;;;;;;;;;5033229;27;93434;-75
2022/04/28 09:12:24;;;;;;;9.30;3.75;;;;;;;;;;5032067;28;92440;-75
2022/04/28 09:15:13;;;;;;;7.20;4.05;;;;;;;;;;5035915;28;92481;-75
2022/04/28 09:17:50;;;;;;;9.95;3.78;;;;;;;;;;5013950;28;95092;-75
2022/04/28 09:20:21;;;;;;;9.82;3.53;;;;;;;;;;5015042;28;96005;-75
2022/04/28 09:22:51;;;;;;;13.00;4.13;;;;;;;;;;5015655;28;95534;-76
2022/04/28 09:25:22;;;;;;;;;;;;;;;;;;4995874;28;93203;-76
2022/04/28 09:27:52;;;;;;;9.25;3.67;;;;;;;;;;4997360;28;94600;-76
2022/04/28 09:30:22;;;;;;;12.55;4.05;;;;;;;;;;4994862;28;95716;-76
2022/04/28 09:33:06;;;;;;;11.80;4.57;;;;;;;;;;4995906;28;92620;-76
2022/04/28 09:35:51;;;;;;;7.50;4.35;;;;;;;;;;5012102;28;92708;-76
2022/04/28 09:38:25;;;;;;;9.60;3.90;;;;;;;;;;4997569;28;93115;-76
2022/04/28 09:43:57;;;;;;;5.35;3.72;;;;;;;;;;4994078;28;96051;-76
2022/04/28 09:46:31;;;;;;;7.90;3.72;;;;;;;;;;4994933;28;93792;-77
2022/04/28 09:48:58;;;;;;;9.30;3.90;;;;;;;;;;4996030;28;94835;-77
2022/04/28 09:51:39;;;;;;;11.48;3.33;;;;;;;;;;4993655;28;93066;-77
2022/04/28 09:54:17;;;;;;;14.32;4.07;;;;;;;;;;4995482;28;92470;-76
2022/04/28 09:56:51;;;;;;;12.40;4.15;;;;;;;;;;5013280;28;93316;-76
2022/04/28 09:59:21;;;;;;;10.93;4.55;;;;;;;;;;4994632;28;93272;-76
2022/04/28 10:01:49;;;;;;;7.28;4.18;;;;;;;;;;4999177;28;92308;-77
2022/04/28 10:04:16;;;;;;;13.23;4.30;;;;;;;;;;5013451;28;93755;-76
2022/04/28 10:07:01;;;;;;;6.63;3.60;;;;;;;;;;5014109;28;93265;-76
2022/04/28 10:09:32;;;;;;;9.80;4.68;;;;;;;;;;5015254;28;94976;-77
2022/04/28 10:12:05;;;;;;;12.15;3.95;;;;;;;;;;4999063;28;95139;-77
2022/04/28 10:14:47;;;;;;;11.27;4.22;;;;;;;;;;4998035;28;92471;-77
2022/04/28 10:17:27;;;;;;;9.80;4.07;;;;;;;;;;5011629;28;93548;-78
2022/04/28 10:19:55;;;;;;;7.75;3.88;;;;;;;;;;5017801;28;95643;-78
2022/04/28 10:22:41;;;;;;;17.40;4.65;;;;;;;;;;5018652;28;93113;-78
2022/04/28 10:34:11;;;;;;;8.40;3.45;;;;;;;;;;5036057;28;124593;-77
2022/04/28 10:36:49;;;;;;;7.43;4.75;;;;;;;;;;5033539;28;94829;-77
2022/04/28 10:39:15;;;;;;;9.75;3.72;;;;;;;;;;5016434;28;96382;-77
2022/04/28 10:41:42;;;;;;;10.73;3.88;;;;;;;;;;5014596;28;93233;-78
2022/04/28 10:44:17;;;;;;;10.50;3.97;;;;;;;;;;5016248;28;92829;-78
2022/04/28 10:46:55;;;;;;;8.50;4.13;;;;;;;;;;4998093;28;93803;-78
2022/04/28 10:49:25;;;;;;;17.85;4.60;;;;;;;;;;5018286;28;94179;-78
2022/04/28 10:51:58;;;;;;;9.95;4.13;;;;;;;;;;5017015;27;94004;-78
2022/04/28 10:54:24;;;;;;;8.82;4.30;;;;;;;;;;5056098;27;92563;-78
2022/04/28 10:56:58;;;;;;;11.80;4.00;;;;;;;;;;5055755;27;92481;-78
2022/04/28 10:59:37;;;;;;;8.63;3.45;;;;;;;;;;5021551;27;93278;-78
2022/04/28 11:02:25;;;;;;;9.60;4.18;;;;;;;;;;4995628;28;98101;-77
2022/04/28 11:05:03;;;;;;;6.70;3.80;;;;;;;;;;5014138;28;92524;-78
2022/04/28 11:07:30;;;;;;;7.85;3.95;;;;;;;;;;5025737;28;92493;-78
2022/04/28 11:09:58;;;;;;;11.20;5.47;;;;;;;;;;5017193;28;94125;-77
2022/04/28 11:12:36;;;;;;;7.20;4.25;;;;;;;;;;5009879;28;95302;-78
2022/04/28 11:15:08;;;;;;;11.13;4.10;;;;;;;;;;5035795;28;94447;-77
2022/04/28 11:17:37;;;;;;;9.77;5.35;;;;;;;;;;5015704;28;92648;-77
2022/04/28 11:20:07;;;;;;;12.75;3.92;;;;;;;;;;5024473;28;93247;-77
2022/04/28 11:22:47;;;;;;;9.20;4.60;;;;;;;;;;4997203;28;96326;-76
2022/04/28 11:25:15;;;;;;;7.10;3.75;;;;;;;;;;5015434;28;93073;-76
2022/04/28 11:27:46;;;;;;;8.32;4.28;;;;;;;;;;4996044;28;94940;-77
2022/04/28 11:30:21;;;;;;;8.65;4.63;;;;;;;;;;4996647;28;95312;-77
2022/04/28 11:32:57;;;;;;;9.60;4.68;;;;;;;;;;5018834;28;92555;-76
2022/04/28 11:35:31;;;;;;;7.43;4.78;;;;;;;;;;5019738;28;94148;-77
2022/04/28 11:37:58;;;;;;;10.02;4.88;;;;;;;;;;5035697;28;92517;-76
2022/04/28 11:40:24;;;;;;;9.32;4.43;;;;;;;;;;5033010;27;93237;-76
2022/04/28 11:42:58;;;;;;;18.35;10.50;;;;;;;;;;5026871;28;94357;-76
2022/04/28 11:45:26;;;;;;;9.25;4.95;;;;;;;;;;5014102;28;92209;-75
2022/04/28 11:47:56;;;;;;;8.98;5.35;;;;;;;;;;5014170;28;92806;-76
2022/04/28 11:50:24;;;;;;;10.55;4.70;;;;;;;;;;5016113;28;95375;-75
2022/04/28 11:53:01;;;;;;;25.48;12.45;;;;;;;;;;5012613;27;95620;-76
2022/04/28 11:55:33;;;;;;;7.25;4.20;;;;;;;;;;5021304;28;96502;-74
2022/04/28 11:58:00;;;;;;;17.35;9.43;;;;;;;;;;5023019;28;92556;-75
2022/04/28 12:00:26;;;;;;;9.45;4.63;;;;;;;;;;5020446;28;93390;-75
2022/04/28 12:02:53;;;;;;;14.98;6.32;;;;;;;;;;5022642;28;93384;-75
2022/04/28 12:05:27;;;;;;;16.15;6.57;;;;;;;;;;5016611;28;93876;-76
2022/04/28 12:07:54;;;;;;;15.35;4.72;;;;;;;;;;5018067;28;94221;-73
2022/04/28 12:15:52;;;;;;;4.88;4.28;;;;;;;;;;5017391;28;92454;-75
2022/04/28 12:21:21;;;;;;;6.57;4.45;;;;;;;;;;5018044;28;98000;-74
2022/04/28 12:23:51;;;;;;;9.07;4.18;;;;;;;;;;5016860;28;94344;-74
2022/04/28 12:26:19;;;;;;;10.20;5.45;;;;;;;;;;5018586;28;92544;-74
2022/04/28 12:28:46;;;;;;;11.60;4.60;;;;;;;;;;5017160;28;93905;-74
2022/04/28 12:31:14;;;;;;;16.35;5.05;;;;;;;;;;5014297;28;94353;-73
2022/04/28 12:34:08;;;;;;;10.68;4.63;;;;;;;;;;5014164;28;92816;-73
2022/04/28 12:36:54;;;;;;;7.75;4.10;;;;;;;;;;5020151;28;94407;-74
2022/04/28 12:39:27;;;;;;;9.25;5.47;;;;;;;;;;5026559;27;93380;-73
2022/04/28 12:41:53;;;;;;;6.18;4.55;;;;;;;;;;5036244;27;92646;-73
2022/04/28 12:44:22;;;;;;;7.70;4.82;;;;;;;;;;5012235;28;95779;-74
2022/04/28 12:46:49;;;;;;;9.13;4.13;;;;;;;;;;5015625;28;92524;-73
2022/04/28 12:49:18;;;;;;;6.13;4.07;;;;;;;;;;5013201;28;92700;-74
2022/04/28 12:51:45;;;;;;;6.90;5.00;;;;;;;;;;5027024;27;94482;-74
2022/04/28 12:54:16;;;;;;;9.32;5.43;;;;;;;;;;5053544;27;92972;-74
2022/04/28 12:56:43;;;;;;;9.23;5.22;;;;;;;;;;5022061;27;93705;-74
2022/04/28 12:59:11;;;;;;;12.07;5.68;;;;;;;;;;5023259;28;93993;-74
2022/04/28 13:01:38;;;;;;;15.45;5.28;;;;;;;;;;5020825;27;91758;-74
2022/04/28 13:04:06;;;;;;;7.95;5.00;;;;;;;;;;5027372;28;93236;-74
2022/04/28 13:06:33;;;;;;;6.80;4.78;;;;;;;;;;5011693;28;95251;-73
2022/04/28 13:09:00;;;;;;;10.55;5.15;;;;;;;;;;5011084;28;95867;-74
2022/04/28 13:11:34;;;;;;;9.95;5.40;;;;;;;;;;5027611;27;94576;-74
2022/04/28 13:14:01;;;;;;;8.45;5.22;;;;;;;;;;5015997;27;94030;-74
2022/04/28 13:16:28;;;;;;;10.77;5.65;;;;;;;;;;5015384;28;93850;-74
2022/04/28 13:18:55;;;;;;;7.53;5.40;;;;;;;;;;5010708;28;94219;-74
2022/04/28 13:21:22;;;;;;;7.38;4.68;;;;;;;;;;5016640;28;93317;-74
2022/04/28 13:23:54;;;;;;;10.63;5.70;;;;;;;;;;5012654;28;94467;-74
2022/04/28 13:26:21;;;;;;;8.10;5.50;;;;;;;;;;5014308;28;92142;-75
2022/04/28 13:28:49;;;;;;;16.08;5.68;;;;;;;;;;5029933;27;92450;-74
2022/04/28 13:31:16;;;;;;;12.57;5.07;;;;;;;;;;5021300;28;93097;-74
2022/04/28 13:33:42;;;;;;;11.02;5.43;;;;;;;;;;5014080;28;95146;-74
2022/04/28 13:36:09;;;;;;;8.27;4.22;;;;;;;;;;5018442;28;95474;-74
2022/04/28 13:38:36;;;;;;;11.77;4.55;;;;;;;;;;5013157;27;93422;-75
2022/04/28 13:41:03;;;;;;;13.48;5.43;;;;;;;;;;5021934;28;92485;-75
2022/04/28 13:43:31;;;;;;;17.95;5.30;;;;;;;;;;5022250;28;96229;-75
2022/04/28 13:46:01;;;;;;;11.52;4.47;;;;;;;;;;5016117;28;96258;-74
2022/04/28 13:48:28;;;;;;;8.48;5.03;;;;;;;;;;5011768;28;93920;-75
2022/04/28 13:50:54;;;;;;;7.28;4.57;;;;;;;;;;5012754;28;94135;-74
2022/04/28 13:53:30;;;;;;;6.80;4.22;;;;;;;;;;5015466;27;92501;-74
2022/04/28 13:56:04;;;;;;;6.05;3.92;;;;;;;;;;5026831;27;93467;-75
2022/04/28 13:58:31;;;;;;;6.53;4.38;;;;;;;;;;5022470;28;96104;-75
2022/04/28 14:00:58;;;;;;;8.80;4.97;;;;;;;;;;5013882;28;92484;-74
2022/04/28 14:03:25;;;;;;;7.22;3.97;;;;;;;;;;5011796;28;94044;-74
2022/04/28 14:05:53;;;;;;;7.22;3.72;;;;;;;;;;5013450;28;92940;-74
2022/04/28 14:08:20;;;;;;;10.05;4.80;;;;;;;;;;5018829;28;93825;-74
2022/04/28 14:10:47;;;;;;;5.38;3.92;;;;;;;;;;5015715;28;94409;-74
2022/04/28 14:13:14;;;;;;;5.55;3.80;;;;;;;;;;5012355;28;92775;-74
2022/04/28 14:15:40;;;;;;;8.90;4.07;;;;;;;;;;5011268;28;93973;-75
2022/04/28 14:18:07;;;;;;;5.93;3.90;;;;;;;;;;5026040;27;93535;-74
2022/04/28 14:20:34;;;;;;;9.15;3.88;;;;;;;;;;5028303;27;92457;-75
2022/04/28 14:23:01;;;;;;;6.35;4.03;;;;;;;;;;5014635;28;95681;-74
2022/04/28 14:25:27;;;;;;;5.95;3.28;;;;;;;;;;5013637;28;94617;-75
2022/04/28 14:27:54;;;;;;;6.20;3.30;;;;;;;;;;5015921;28;93651;-75
2022/04/28 14:30:20;;;;;;;10.55;3.88;;;;;;;;;;5016849;28;94168;-74
2022/04/28 14:32:46;;;;;;;7.13;3.75;;;;;;;;;;5016646;28;93809;-75
2022/04/28 14:35:13;;;;;;;8.15;4.35;;;;;;;;;;5011835;28;93849;-74
2022/04/28 14:37:41;;;;;;;6.43;3.88;;;;;;;;;;5029152;28;94882;-77
2022/04/28 14:40:09;;;;;;;12.68;4.45;;;;;;;;;;5041955;27;91722;-75
2022/04/28 14:42:35;;;;;;;9.43;4.05;;;;;;;;;;5025741;27;93428;-75
2022/04/28 14:45:03;;;;;;;6.55;3.45;;;;;;;;;;5012698;28;94471;-74
2022/04/28 14:47:29;;;;;;;10.50;4.57;;;;;;;;;;5010727;28;95399;-75
2022/04/28 14:52:40;;;;;;;6.30;3.22;;;;;;;;;;5028304;28;93339;-74
2022/04/28 14:55:08;;;;;;;8.80;4.70;;;;;;;;;;5015395;28;93958;-75
2022/04/28 14:57:35;;;;;;;8.85;4.25;;;;;;;;;;5013474;28;94110;-75
2022/04/28 15:00:04;;;;;;;16.42;4.47;;;;;;;;;;5021141;28;94401;-74
2022/04/28 15:02:30;;;;;;;6.95;3.63;;;;;;;;;;5023626;28;94148;-73
2022/04/28 15:04:57;;;;;;;6.78;3.33;;;;;;;;;;5015842;28;93360;-74
2022/04/28 15:07:24;;;;;;;6.30;3.45;;;;;;;;;;5017975;28;92485;-73
2022/04/28 15:09:51;;;;;;;15.70;5.15;;;;;;;;;;5015323;28;93956;-74
2022/04/28 15:12:18;;;;;;;13.48;4.03;;;;;;;;;;5027721;27;96151;-75
2022/04/28 15:14:44;;;;;;;5.65;2.88;;;;;;;;;;5021137;28;92725;-76
2022/04/28 15:17:11;;;;;;;8.48;3.60;;;;;;;;;;5017771;28;92644;-75
2022/04/28 15:19:38;;;;;;;6.82;3.60;;;;;;;;;;5012128;28;92673;-74
2022/04/28 15:22:05;;;;;;;16.92;3.90;;;;;;;;;;5030610;28;94124;-77
2022/04/28 15:24:31;;;;;;;9.48;3.50;;;;;;;;;;5035315;28;94172;-77
2022/04/28 15:26:58;;;;;;;8.05;3.42;;;;;;;;;;5035933;28;92431;-74
2022/04/28 15:29:24;;;;;;;7.22;3.65;;;;;;;;;;5035364;28;94017;-73
2022/04/28 15:31:50;;;;;;;7.68;3.20;;;;;;;;;;5030123;27;94310;-73
2022/04/28 15:34:17;;;;;;;12.80;4.45;;;;;;;;;;5022414;28;92504;-73
2022/04/28 15:36:44;;;;;;;8.15;3.33;;;;;;;;;;5028116;28;96755;-74
2022/04/28 15:39:14;;;;;;;6.38;3.33;;;;;;;;;;5024065;28;92737;-73
2022/04/28 15:41:41;;;;;;;5.47;3.60;;;;;;;;;;5025183;28;94937;-73